Time,TemperatureF,DewpointF,PressureIn,WindDirection,WindDirectionDegrees,WindSpeedMPH,WindSpeedGustMPH,Humidity,HourlyPrecipIn,Conditions,Clouds,dailyrainin,SoftwareType,DateUTC
2013-02-26 00:00:00,33.1,31.1,-100.00,WSW,248,0.0,0.0,92,0.00,,,0.00,meteohub,2013-02-26 05:00:00,
2013-02-26 00:02:00,33.1,31.1,-100.00,WSW,248,0.0,0.0,92,0.00,,,0.00,meteohub,2013-02-26 05:02:00,
2013-02-26 00:03:00,33.3,31.1,-100.00,WSW,248,0.0,0.0,92,0.00,,,0.00,meteohub,2013-02-26 05:03:00,
2013-02-26 00:07:00,33.6,31.5,-100.00,WSW,248,0.0,0.0,92,0.00,,,0.00,meteohub,2013-02-26 05:07:00,
2013-02-26 00:12:00,32.7,30.7,-100.00,WSW,248,0.0,0.0,92,0.00,,,0.00,meteohub,2013-02-26 05:12:00,
2013-02-26 00:17:00,33.6,31.5,-100.00,WSW,248,0.0,0.0,92,0.00,,,0.00,meteohub,2013-02-26 05:17:00,
2013-02-26 00:22:00,33.8,31.5,-100.00,WSW,248,0.0,0.0,91,0.00,,,0.00,meteohub,2013-02-26 05:22:00,
2013-02-26 00:27:00,33.3,30.9,-100.00,WSW,248,0.0,0.0,91,0.00,,,0.00,meteohub,2013-02-26 05:27:00,
2013-02-26 00:32:00,33.8,31.5,-100.00,WSW,248,0.0,0.0,91,0.00,,,0.00,meteohub,2013-02-26 05:32:00,
2013-02-26 00:37:00,33.3,30.9,-100.00,WSW,248,0.0,0.0,91,0.00,,,0.00,meteohub,2013-02-26 05:37:00,
2013-02-26 00:42:00,33.6,31.5,-100.00,WSW,248,0.0,0.0,92,0.00,,,0.00,meteohub,2013-02-26 05:42:00,
2013-02-26 00:47:00,33.6,31.5,-100.00,WSW,248,0.0,0.0,92,0.00,,,0.00,meteohub,2013-02-26 05:47:00,
2013-02-26 00:53:00,33.3,31.1,-100.00,WSW,248,0.0,0.0,92,0.00,,,0.00,meteohub,2013-02-26 05:53:00,
2013-02-26 00:58:00,33.3,31.1,-100.00,WSW,248,0.0,0.0,92,0.00,,,0.00,meteohub,2013-02-26 05:58:00,
2013-02-26 01:03:00,32.5,30.6,-100.00,WSW,248,0.0,0.0,92,0.00,,,0.00,meteohub,2013-02-26 06:03:00,
2013-02-26 01:08:00,33.6,31.5,-100.00,WSW,248,0.0,0.0,92,0.00,,,0.00,meteohub,2013-02-26 06:08:00,
2013-02-26 01:13:00,32.5,30.6,-100.00,WSW,248,0.0,0.0,92,0.00,,,0.00,meteohub,2013-02-26 06:13:00,
2013-02-26 01:18:00,33.1,31.1,-100.00,WSW,248,0.0,0.0,92,0.00,,,0.00,meteohub,2013-02-26 06:18:00,
2013-02-26 01:23:00,33.1,31.1,-100.00,WSW,248,0.0,0.0,92,0.00,,,0.00,meteohub,2013-02-26 06:23:00,
2013-02-26 01:28:00,33.1,31.1,-100.00,WSW,248,0.0,0.0,92,0.00,,,0.00,meteohub,2013-02-26 06:28:00,
2013-02-26 01:33:00,33.3,31.1,-100.00,WSW,248,0.0,0.0,92,0.00,,,0.00,meteohub,2013-02-26 06:33:00,
2013-02-26 01:38:00,33.1,31.1,-100.00,WSW,248,0.0,0.0,92,0.00,,,0.00,meteohub,2013-02-26 06:38:00,
2013-02-26 01:43:00,33.1,31.1,-100.00,WSW,248,0.0,0.0,92,0.00,,,0.00,meteohub,2013-02-26 06:43:00,
2013-02-26 01:48:00,32.4,30.4,-100.00,WSW,248,0.0,0.0,92,0.00,,,0.00,meteohub,2013-02-26 06:48:00,
2013-02-26 01:53:00,32.5,30.6,-100.00,WSW,248,0.0,0.0,92,0.00,,,0.00,meteohub,2013-02-26 06:53:00,
2013-02-26 01:58:00,32.5,30.6,-100.00,WSW,248,0.0,0.0,92,0.00,,,0.00,meteohub,2013-02-26 06:58:00,
2013-02-26 02:03:00,33.1,31.1,-100.00,WSW,248,0.0,0.0,92,0.00,,,0.00,meteohub,2013-02-26 07:03:00,
2013-02-26 02:08:00,32.5,30.6,-100.00,WSW,248,0.0,0.0,92,0.00,,,0.00,meteohub,2013-02-26 07:08:00,
2013-02-26 02:14:00,32.5,30.6,-100.00,WSW,248,0.0,0.0,92,0.00,,,0.00,meteohub,2013-02-26 07:14:00,
2013-02-26 02:19:00,33.1,31.1,-100.00,WSW,248,0.0,0.0,92,0.00,,,0.00,meteohub,2013-02-26 07:19:00,
2013-02-26 02:24:00,32.5,30.6,-100.00,WSW,248,0.0,0.0,92,0.00,,,0.00,meteohub,2013-02-26 07:24:00,
2013-02-26 02:29:00,32.7,30.9,-100.00,WSW,248,0.0,0.0,93,0.00,,,0.00,meteohub,2013-02-26 07:29:00,
2013-02-26 02:34:00,33.8,32.2,-100.00,WSW,248,0.0,0.0,94,0.00,,,0.00,meteohub,2013-02-26 07:34:00,
2013-02-26 02:39:00,34.9,33.8,-100.00,WSW,248,0.0,0.0,96,0.00,,,0.00,meteohub,2013-02-26 07:39:00,
2013-02-26 02:44:00,34.5,33.3,-100.00,WSW,248,0.0,0.0,95,0.00,,,0.00,meteohub,2013-02-26 07:44:00,
2013-02-26 02:49:00,34.2,32.9,-100.00,WSW,248,0.0,0.0,95,0.00,,,0.00,meteohub,2013-02-26 07:49:00,
2013-02-26 02:54:00,34.2,32.9,-100.00,WSW,248,0.0,0.0,95,0.00,,,0.00,meteohub,2013-02-26 07:54:00,
2013-02-26 02:59:00,33.8,32.7,-100.00,WSW,248,0.0,0.0,96,0.00,,,0.00,meteohub,2013-02-26 07:59:00,
2013-02-26 03:04:00,35.1,34.0,-100.00,WSW,248,0.0,0.0,96,0.00,,,0.00,meteohub,2013-02-26 08:04:00,
2013-02-26 03:09:00,35.2,34.2,-100.00,WSW,248,0.0,0.0,96,0.00,,,0.00,meteohub,2013-02-26 08:09:00,
2013-02-26 03:14:00,36.7,36.0,-100.00,WSW,248,0.0,0.0,97,0.00,,,0.00,meteohub,2013-02-26 08:14:00,
2013-02-26 03:19:00,36.7,35.6,-100.00,WSW,248,0.0,0.0,96,0.00,,,0.00,meteohub,2013-02-26 08:19:00,
2013-02-26 03:24:00,35.6,34.5,-100.00,WSW,248,0.0,0.0,96,0.00,,,0.00,meteohub,2013-02-26 08:24:00,
2013-02-26 03:29:00,34.5,33.4,-100.00,WSW,248,0.0,0.0,96,0.00,,,0.00,meteohub,2013-02-26 08:29:00,
2013-02-26 03:34:00,34.5,33.4,-100.00,WSW,248,0.0,0.0,96,0.00,,,0.00,meteohub,2013-02-26 08:34:00,
2013-02-26 03:40:00,34.2,33.1,-100.00,WSW,248,0.0,0.0,96,0.00,,,0.00,meteohub,2013-02-26 08:40:00,
2013-02-26 03:45:00,34.2,33.1,-100.00,WSW,248,0.0,0.0,96,0.00,,,0.00,meteohub,2013-02-26 08:45:00,
2013-02-26 03:50:00,33.6,32.5,-100.00,WSW,248,0.0,0.0,96,0.00,,,0.00,meteohub,2013-02-26 08:50:00,
2013-02-26 03:55:00,33.8,32.7,-100.00,WSW,248,0.0,0.0,96,0.00,,,0.00,meteohub,2013-02-26 08:55:00,
2013-02-26 04:00:00,33.1,32.0,-100.00,WSW,248,0.0,0.0,96,0.00,,,0.00,meteohub,2013-02-26 09:00:00,
2013-02-26 04:05:00,32.5,31.5,-100.00,WSW,248,0.0,0.0,96,0.00,,,0.00,meteohub,2013-02-26 09:05:00,
2013-02-26 04:10:00,33.3,32.2,-100.00,WSW,248,0.0,0.0,96,0.00,,,0.00,meteohub,2013-02-26 09:10:00,
2013-02-26 04:15:00,32.7,31.6,-100.00,WSW,248,0.0,0.0,96,0.00,,,0.00,meteohub,2013-02-26 09:15:00,
2013-02-26 04:20:00,33.1,32.0,-100.00,WSW,248,0.0,0.0,96,0.00,,,0.00,meteohub,2013-02-26 09:20:00,
2013-02-26 04:25:00,32.4,31.3,-100.00,WSW,248,0.0,0.0,96,0.00,,,0.00,meteohub,2013-02-26 09:25:00,
2013-02-26 04:30:00,32.4,31.3,-100.00,WSW,248,0.0,0.0,96,0.00,,,0.00,meteohub,2013-02-26 09:30:00,
2013-02-26 04:35:00,32.4,31.3,-100.00,WSW,248,0.0,0.0,96,0.00,,,0.00,meteohub,2013-02-26 09:35:00,
2013-02-26 04:40:00,32.5,31.5,-100.00,WSW,248,0.0,0.0,96,0.00,,,0.00,meteohub,2013-02-26 09:40:00,
2013-02-26 04:45:00,32.5,31.5,-100.00,WSW,248,0.0,0.0,96,0.00,,,0.00,meteohub,2013-02-26 09:45:00,
2013-02-26 04:50:00,32.5,31.5,-100.00,WSW,248,0.0,0.0,96,0.00,,,0.00,meteohub,2013-02-26 09:50:00,
2013-02-26 04:55:00,32.5,31.5,-100.00,WSW,248,0.0,0.0,96,0.00,,,0.00,meteohub,2013-02-26 09:55:00,
2013-02-26 05:01:00,32.4,31.3,-100.00,WSW,248,0.0,0.0,96,0.00,,,0.00,meteohub,2013-02-26 10:01:00,
2013-02-26 05:06:00,32.0,30.7,-100.00,WSW,248,0.0,0.0,95,0.00,,,0.00,meteohub,2013-02-26 10:06:00,
2013-02-26 05:11:00,32.4,31.1,-100.00,WSW,248,0.0,0.0,95,0.00,,,0.00,meteohub,2013-02-26 10:11:00,
2013-02-26 05:16:00,32.5,31.3,-100.00,WSW,248,0.0,0.0,95,0.00,,,0.00,meteohub,2013-02-26 10:16:00,
2013-02-26 05:21:00,33.1,31.8,-100.00,WSW,248,0.0,0.0,95,0.00,,,0.00,meteohub,2013-02-26 10:21:00,
2013-02-26 05:26:00,32.0,30.7,-100.00,WSW,248,0.0,0.0,95,0.00,,,0.00,meteohub,2013-02-26 10:26:00,
2013-02-26 05:31:00,32.4,31.1,-100.00,WSW,248,0.0,0.0,95,0.00,,,0.00,meteohub,2013-02-26 10:31:00,
2013-02-26 05:36:00,32.5,31.3,-100.00,WSW,248,0.0,0.0,95,0.00,,,0.00,meteohub,2013-02-26 10:36:00,
2013-02-26 05:41:00,31.8,30.6,-100.00,WSW,248,0.0,0.0,95,0.00,,,0.00,meteohub,2013-02-26 10:41:00,
2013-02-26 05:46:00,32.0,30.7,-100.00,WSW,248,0.0,0.0,95,0.00,,,0.00,meteohub,2013-02-26 10:46:00,
2013-02-26 05:51:00,32.5,31.3,-100.00,WSW,248,0.0,0.0,95,0.00,,,0.00,meteohub,2013-02-26 10:51:00,
2013-02-26 05:56:00,32.5,31.3,-100.00,WSW,248,0.0,0.0,95,0.00,,,0.00,meteohub,2013-02-26 10:56:00,
2013-02-26 06:01:00,32.4,31.1,-100.00,WSW,248,0.0,0.0,95,0.00,,,0.00,meteohub,2013-02-26 11:01:00,
2013-02-26 06:07:00,32.5,31.3,-100.00,WSW,248,0.0,0.0,95,0.00,,,0.00,meteohub,2013-02-26 11:07:00,
2013-02-26 06:12:00,32.5,31.3,-100.00,WSW,248,0.0,0.0,95,0.00,,,0.00,meteohub,2013-02-26 11:12:00,
2013-02-26 06:17:00,32.4,31.1,-100.00,WSW,248,0.0,0.0,95,0.00,,,0.00,meteohub,2013-02-26 11:17:00,
2013-02-26 06:22:00,33.3,32.0,-100.00,WSW,248,0.0,0.0,95,0.00,,,0.00,meteohub,2013-02-26 11:22:00,
2013-02-26 06:27:00,32.4,31.1,-100.00,WSW,248,0.0,0.0,95,0.00,,,0.00,meteohub,2013-02-26 11:27:00,
2013-02-26 06:32:00,33.1,31.8,-100.00,WSW,248,0.0,0.0,95,0.00,,,0.00,meteohub,2013-02-26 11:32:00,
2013-02-26 06:37:00,32.0,30.7,-100.00,WSW,248,0.0,0.0,95,0.00,,,0.00,meteohub,2013-02-26 11:37:00,
2013-02-26 06:42:00,31.8,30.6,-100.00,WSW,248,0.0,0.0,95,0.00,,,0.00,meteohub,2013-02-26 11:42:00,
2013-02-26 06:47:00,32.5,31.3,-100.00,WSW,248,0.0,0.0,95,0.00,,,0.00,meteohub,2013-02-26 11:47:00,
2013-02-26 06:52:00,32.4,31.1,-100.00,WSW,248,0.0,0.0,95,0.00,,,0.00,meteohub,2013-02-26 11:52:00,
2013-02-26 06:57:00,32.7,31.5,-100.00,WSW,248,0.0,0.0,95,0.00,,,0.00,meteohub,2013-02-26 11:57:00,
2013-02-26 07:02:00,32.5,31.3,-100.00,WSW,248,0.0,0.0,95,0.00,,,0.00,meteohub,2013-02-26 12:02:00,
2013-02-26 07:07:00,33.1,31.8,-100.00,WSW,248,0.0,0.0,95,0.00,,,0.00,meteohub,2013-02-26 12:07:00,
2013-02-26 07:12:00,32.7,31.5,-100.00,WSW,248,0.0,0.0,95,0.00,,,0.00,meteohub,2013-02-26 12:12:00,
2013-02-26 07:17:00,33.3,32.0,-100.00,WSW,248,0.0,0.0,95,0.00,,,0.00,meteohub,2013-02-26 12:17:00,
2013-02-26 07:22:00,32.5,31.3,-100.00,WSW,248,0.0,0.0,95,0.00,,,0.00,meteohub,2013-02-26 12:22:00,
2013-02-26 07:27:00,33.3,31.6,-100.00,WSW,248,0.0,0.0,94,0.00,,,0.00,meteohub,2013-02-26 12:27:00,
2013-02-26 07:32:00,32.4,30.7,-100.00,WSW,248,0.0,0.0,94,0.00,,,0.00,meteohub,2013-02-26 12:32:00,
2013-02-26 07:37:00,33.8,32.2,-100.00,WSW,248,0.0,0.0,94,0.00,,,0.00,meteohub,2013-02-26 12:37:00,
2013-02-26 07:42:00,33.3,31.6,-100.00,WSW,248,0.0,0.0,94,0.00,,,0.00,meteohub,2013-02-26 12:42:00,
2013-02-26 07:47:00,33.8,32.2,-100.00,WSW,248,0.0,0.0,94,0.00,,,0.00,meteohub,2013-02-26 12:47:00,
2013-02-26 07:52:00,33.1,31.5,-100.00,WSW,248,0.0,0.0,94,0.00,,,0.00,meteohub,2013-02-26 12:52:00,
2013-02-26 07:57:00,34.2,32.5,-100.00,WSW,248,0.0,0.0,94,0.00,,,0.00,meteohub,2013-02-26 12:57:00,
2013-02-26 08:02:00,33.1,31.5,-100.00,WSW,248,0.0,0.0,94,0.00,,,0.00,meteohub,2013-02-26 13:02:00,
2013-02-26 08:07:00,34.2,32.5,-100.00,WSW,248,0.0,0.0,94,0.00,,,0.00,meteohub,2013-02-26 13:07:00,
2013-02-26 08:12:00,33.3,31.6,-100.00,WSW,248,0.0,0.0,94,0.00,,,0.00,meteohub,2013-02-26 13:12:00,
2013-02-26 08:17:00,34.5,32.9,-100.00,WSW,248,0.0,0.0,94,0.00,,,0.00,meteohub,2013-02-26 13:17:00,
2013-02-26 08:22:00,34.5,32.7,-100.00,WSW,248,0.0,0.0,93,0.00,,,0.00,meteohub,2013-02-26 13:22:00,
2013-02-26 08:27:00,33.8,32.0,-100.00,WSW,248,0.0,0.0,93,0.00,,,0.00,meteohub,2013-02-26 13:27:00,
2013-02-26 08:32:00,34.2,32.4,-100.00,WSW,248,0.0,0.0,93,0.00,,,0.00,meteohub,2013-02-26 13:32:00,
2013-02-26 08:38:00,34.3,32.5,-100.00,WSW,248,0.0,0.0,93,0.00,,,0.00,meteohub,2013-02-26 13:38:00,
2013-02-26 08:43:00,34.5,32.7,-100.00,ESE,111,0.0,0.0,93,0.00,,,0.00,meteohub,2013-02-26 13:43:00,
2013-02-26 08:48:00,35.6,33.3,-100.00,NE,45,0.0,3.0,91,0.00,,,0.00,meteohub,2013-02-26 13:48:00,
2013-02-26 08:53:00,34.9,32.2,-100.00,NE,45,0.0,3.0,90,0.00,,,0.00,meteohub,2013-02-26 13:53:00,
2013-02-26 08:58:00,35.2,32.4,-100.00,SE,127,2.0,3.0,89,0.00,,,0.00,meteohub,2013-02-26 13:58:00,
2013-02-26 09:03:00,36.0,32.7,-100.00,SSE,157,0.0,3.0,88,0.00,,,0.00,meteohub,2013-02-26 14:03:00,
2013-02-26 09:08:00,36.1,32.9,-100.00,South,184,0.0,2.0,88,0.00,,,0.00,meteohub,2013-02-26 14:08:00,
2013-02-26 09:13:00,36.1,32.4,-100.00,SE,135,0.0,2.0,86,0.00,,,0.00,meteohub,2013-02-26 14:13:00,
2013-02-26 09:18:00,36.0,32.2,-100.00,ENE,74,0.0,2.0,86,0.00,,,0.00,meteohub,2013-02-26 14:18:00,
2013-02-26 09:23:00,37.6,34.9,-100.00,ENE,74,0.0,2.0,90,0.00,,,0.00,meteohub,2013-02-26 14:23:00,
2013-02-26 09:28:00,39.4,37.6,-100.00,NE,50,0.0,2.0,93,0.00,,,0.00,meteohub,2013-02-26 14:28:00,
2013-02-26 09:33:00,39.7,37.4,-100.00,ESE,111,2.0,3.0,91,0.00,,,0.00,meteohub,2013-02-26 14:33:00,
2013-02-26 09:38:00,39.7,37.4,-100.00,NNE,12,2.0,3.0,91,0.00,,,0.00,meteohub,2013-02-26 14:38:00,
2013-02-26 09:44:00,39.4,36.7,-100.00,NE,43,0.0,4.0,90,0.00,,,0.00,meteohub,2013-02-26 14:44:00,
2013-02-26 09:49:00,39.7,36.7,-100.00,NNE,30,5.0,5.0,89,0.00,,,0.00,meteohub,2013-02-26 14:49:00,
2013-02-26 09:54:00,39.0,35.8,-100.00,SE,129,0.0,6.0,88,0.00,,,0.00,meteohub,2013-02-26 14:54:00,
2013-02-26 09:59:00,39.4,36.7,-100.00,SE,129,0.0,6.0,90,0.00,,,0.00,meteohub,2013-02-26 14:59:00,
2013-02-26 10:04:00,38.8,35.1,-100.00,SE,142,2.0,6.0,86,0.00,,,0.00,meteohub,2013-02-26 15:04:00,
2013-02-26 10:09:00,38.5,32.9,-100.00,ESE,118,1.0,6.0,80,0.00,,,0.00,meteohub,2013-02-26 15:09:00,
2013-02-26 10:14:00,39.4,33.4,-100.00,SSE,150,0.0,5.0,79,0.00,,,0.00,meteohub,2013-02-26 15:14:00,
2013-02-26 10:19:00,39.4,33.4,-100.00,SSW,195,1.0,5.0,79,0.00,,,0.00,meteohub,2013-02-26 15:19:00,
2013-02-26 10:24:00,39.4,33.1,-100.00,SE,137,1.0,4.0,78,0.00,,,0.00,meteohub,2013-02-26 15:24:00,
2013-02-26 10:29:00,38.7,31.8,-100.00,ENE,74,0.0,4.0,76,0.00,,,0.00,meteohub,2013-02-26 15:29:00,
2013-02-26 10:34:00,39.0,31.5,-100.00,SSE,154,0.0,4.0,74,0.00,,,0.00,meteohub,2013-02-26 15:34:00,
2013-02-26 10:39:00,39.7,32.2,-100.00,SSE,154,0.0,4.0,74,0.00,,,0.00,meteohub,2013-02-26 15:39:00,
2013-02-26 10:45:00,38.7,30.4,-100.00,SSE,154,0.0,2.0,72,0.00,,,0.00,meteohub,2013-02-26 15:45:00,
2013-02-26 10:50:00,39.4,30.7,-100.00,ENE,78,0.0,6.0,71,0.00,,,0.00,meteohub,2013-02-26 15:50:00,
2013-02-26 10:55:00,39.0,31.1,-100.00,NE,40,1.0,7.0,73,0.00,,,0.00,meteohub,2013-02-26 15:55:00,
2013-02-26 11:00:00,38.8,31.3,-100.00,NE,56,0.0,7.0,74,0.00,,,0.00,meteohub,2013-02-26 16:00:00,
2013-02-26 11:05:00,40.6,32.7,-100.00,ENE,63,2.0,4.0,73,0.00,,,0.00,meteohub,2013-02-26 16:05:00,
2013-02-26 11:10:00,39.0,30.7,-100.00,NE,54,3.0,4.0,72,0.00,,,0.00,meteohub,2013-02-26 16:10:00,
2013-02-26 11:15:00,40.5,32.2,-100.00,SE,130,0.0,6.0,72,0.00,,,0.00,meteohub,2013-02-26 16:15:00,
2013-02-26 11:20:00,39.7,29.7,-100.00,SSE,147,1.0,6.0,67,0.00,,,0.00,meteohub,2013-02-26 16:20:00,
2013-02-26 11:25:00,41.0,30.6,-100.00,SE,132,0.0,4.0,66,0.00,,,0.00,meteohub,2013-02-26 16:25:00,
2013-02-26 11:30:00,41.2,30.7,-100.00,SE,132,0.0,4.0,66,0.00,,,0.00,meteohub,2013-02-26 16:30:00,
2013-02-26 11:35:00,41.9,31.8,-100.00,SE,132,0.0,4.0,67,0.00,,,0.00,meteohub,2013-02-26 16:35:00,
2013-02-26 11:40:00,41.2,30.7,-100.00,SE,132,0.0,4.0,66,0.00,,,0.00,meteohub,2013-02-26 16:40:00,
2013-02-26 11:45:00,41.7,30.4,-100.00,SE,132,0.0,3.0,64,0.00,,,0.00,meteohub,2013-02-26 16:45:00,
2013-02-26 11:50:00,41.7,30.7,-100.00,SE,132,0.0,0.0,65,0.00,,,0.00,meteohub,2013-02-26 16:50:00,
2013-02-26 11:55:00,41.4,30.0,-100.00,SSW,203,1.0,0.0,64,0.00,,,0.00,meteohub,2013-02-26 16:55:00,
2013-02-26 12:01:00,41.4,30.6,-100.00,SE,132,0.0,3.0,65,0.00,,,0.00,meteohub,2013-02-26 17:01:00,
2013-02-26 12:06:00,41.0,28.9,-100.00,ENE,68,0.0,4.0,62,0.00,,,0.00,meteohub,2013-02-26 17:06:00,
2013-02-26 12:11:00,41.7,29.3,-100.00,SSW,213,0.0,4.0,61,0.00,,,0.00,meteohub,2013-02-26 17:11:00,
2013-02-26 12:16:00,42.3,30.2,-100.00,SW,215,0.0,4.0,62,0.00,,,0.00,meteohub,2013-02-26 17:16:00,
2013-02-26 12:21:00,41.2,28.8,-100.00,SE,142,4.0,4.0,61,0.00,,,0.00,meteohub,2013-02-26 17:21:00,
2013-02-26 12:26:00,40.6,28.2,-100.00,SW,223,1.0,6.0,61,0.00,,,0.00,meteohub,2013-02-26 17:26:00,
2013-02-26 12:31:00,41.4,28.9,-100.00,SSE,158,2.0,6.0,61,0.00,,,0.00,meteohub,2013-02-26 17:31:00,
2013-02-26 12:36:00,41.0,27.9,-100.00,South,171,2.0,6.0,59,0.00,,,0.00,meteohub,2013-02-26 17:36:00,
2013-02-26 12:41:00,40.5,28.0,-100.00,South,171,2.0,6.0,61,0.00,,,0.00,meteohub,2013-02-26 17:41:00,
2013-02-26 12:46:00,40.5,28.0,-100.00,SW,234,0.0,6.0,61,0.00,,,0.00,meteohub,2013-02-26 17:46:00,
2013-02-26 12:52:00,41.2,28.8,-100.00,South,181,5.0,6.0,61,0.00,,,0.00,meteohub,2013-02-26 17:52:00,
2013-02-26 12:57:00,40.3,28.2,-100.00,SE,135,5.0,6.0,62,0.00,,,0.00,meteohub,2013-02-26 17:57:00,
2013-02-26 13:02:00,41.2,29.1,-100.00,ESE,106,0.0,5.0,62,0.00,,,0.00,meteohub,2013-02-26 18:02:00,
2013-02-26 13:07:00,40.3,27.1,-100.00,NE,46,0.0,5.0,59,0.00,,,0.00,meteohub,2013-02-26 18:07:00,
2013-02-26 13:12:00,41.4,29.3,-100.00,SE,125,1.0,5.0,62,0.00,,,0.00,meteohub,2013-02-26 18:12:00,
2013-02-26 13:17:00,40.6,28.2,-100.00,SE,125,0.0,5.0,61,0.00,,,0.00,meteohub,2013-02-26 18:17:00,
2013-02-26 13:22:00,40.5,28.0,-100.00,South,178,0.0,5.0,61,0.00,,,0.00,meteohub,2013-02-26 18:22:00,
2013-02-26 13:27:00,41.2,28.8,-100.00,SE,125,2.0,6.0,61,0.00,,,0.00,meteohub,2013-02-26 18:27:00,
2013-02-26 13:32:00,41.4,29.7,-100.00,SE,132,4.0,6.0,63,0.00,,,0.00,meteohub,2013-02-26 18:32:00,
2013-02-26 13:37:00,41.2,29.1,-100.00,SE,143,0.0,6.0,62,0.00,,,0.00,meteohub,2013-02-26 18:37:00,
2013-02-26 13:42:00,40.3,28.8,-100.00,SSE,151,0.0,6.0,63,0.00,,,0.00,meteohub,2013-02-26 18:42:00,
2013-02-26 13:47:00,39.7,28.2,-100.00,East,85,0.0,5.0,63,0.00,,,0.00,meteohub,2013-02-26 18:47:00,
2013-02-26 13:52:00,40.6,29.1,-100.00,South,185,0.0,5.0,63,0.00,,,0.00,meteohub,2013-02-26 18:52:00,
2013-02-26 13:58:00,41.0,30.2,-100.00,SW,229,1.0,3.0,65,0.00,,,0.00,meteohub,2013-02-26 18:58:00,
2013-02-26 14:03:00,41.4,29.7,-100.00,SE,144,1.0,3.0,63,0.00,,,0.00,meteohub,2013-02-26 19:03:00,
2013-02-26 14:08:00,40.3,29.1,-100.00,SSE,153,2.0,4.0,64,0.00,,,0.00,meteohub,2013-02-26 19:08:00,
2013-02-26 14:13:00,39.7,28.2,-100.00,NE,37,2.0,4.0,63,0.00,,,0.00,meteohub,2013-02-26 19:13:00,
2013-02-26 14:18:00,41.0,30.2,-100.00,SE,140,0.0,4.0,65,0.00,,,0.00,meteohub,2013-02-26 19:18:00,
2013-02-26 14:23:00,40.6,29.1,-100.00,ESE,119,0.0,4.0,63,0.00,,,0.00,meteohub,2013-02-26 19:23:00,
2013-02-26 14:28:00,41.4,30.0,-100.00,ESE,113,0.0,6.0,64,0.00,,,0.00,meteohub,2013-02-26 19:28:00,
2013-02-26 14:33:00,41.2,29.5,-100.00,SSE,149,2.0,6.0,63,0.00,,,0.00,meteohub,2013-02-26 19:33:00,
2013-02-26 14:38:00,41.2,28.4,-100.00,SE,132,4.0,6.0,60,0.00,,,0.00,meteohub,2013-02-26 19:38:00,
2013-02-26 14:43:00,40.3,28.2,-100.00,SE,129,2.0,6.0,62,0.00,,,0.00,meteohub,2013-02-26 19:43:00,
2013-02-26 14:48:00,39.7,27.3,-100.00,ESE,118,1.0,5.0,61,0.00,,,0.00,meteohub,2013-02-26 19:48:00,
2013-02-26 14:53:00,39.9,28.4,-100.00,SE,125,3.0,5.0,63,0.00,,,0.00,meteohub,2013-02-26 19:53:00,
2013-02-26 14:58:00,41.0,28.6,-100.00,SE,140,1.0,6.0,61,0.00,,,0.00,meteohub,2013-02-26 19:58:00,
2013-02-26 15:03:00,40.5,28.0,-100.00,SSE,158,0.0,6.0,61,0.00,,,0.00,meteohub,2013-02-26 20:03:00,
2013-02-26 15:08:00,41.9,30.2,-100.00,WSW,251,3.0,6.0,63,0.00,,,0.00,meteohub,2013-02-26 20:08:00,
2013-02-26 15:14:00,40.6,27.9,-100.00,SE,142,0.0,5.0,60,0.00,,,0.00,meteohub,2013-02-26 20:14:00,
2013-02-26 15:19:00,42.4,29.5,-100.00,SE,139,1.0,5.0,60,0.00,,,0.00,meteohub,2013-02-26 20:19:00,
2013-02-26 15:24:00,39.0,26.8,-100.00,ESE,119,2.0,6.0,61,0.00,,,0.00,meteohub,2013-02-26 20:24:00,
2013-02-26 15:29:00,40.3,27.9,-100.00,ESE,115,1.0,6.0,61,0.00,,,0.00,meteohub,2013-02-26 20:29:00,
2013-02-26 15:34:00,40.6,29.1,-100.00,SE,135,0.0,6.0,63,0.00,,,0.00,meteohub,2013-02-26 20:34:00,
2013-02-26 15:39:00,39.9,28.8,-100.00,ESE,115,1.0,6.0,64,0.00,,,0.00,meteohub,2013-02-26 20:39:00,
2013-02-26 15:44:00,39.9,29.1,-100.00,SSW,205,0.0,6.0,65,0.00,,,0.00,meteohub,2013-02-26 20:44:00,
2013-02-26 15:49:00,40.5,29.7,-100.00,ESE,113,0.0,4.0,65,0.00,,,0.00,meteohub,2013-02-26 20:49:00,
2013-02-26 15:55:00,40.5,30.0,-100.00,ENE,61,0.0,4.0,66,0.00,,,0.00,meteohub,2013-02-26 20:55:00,
2013-02-26 16:00:00,40.3,29.8,-100.00,East,91,0.0,4.0,66,0.00,,,0.00,meteohub,2013-02-26 21:00:00,
2013-02-26 16:05:00,40.5,30.0,-100.00,ESE,102,0.0,5.0,66,0.00,,,0.00,meteohub,2013-02-26 21:05:00,
2013-02-26 16:10:00,39.9,29.5,-100.00,SE,129,0.0,5.0,66,0.00,,,0.00,meteohub,2013-02-26 21:10:00,
2013-02-26 16:15:00,39.7,29.7,-100.00,SE,137,0.0,5.0,67,0.00,,,0.00,meteohub,2013-02-26 21:15:00,
2013-02-26 16:20:00,38.7,28.6,-100.00,SSE,158,1.0,5.0,67,0.00,,,0.00,meteohub,2013-02-26 21:20:00,
2013-02-26 16:25:00,39.9,30.2,-100.00,South,187,0.0,6.0,68,0.00,,,0.00,meteohub,2013-02-26 21:25:00,
2013-02-26 16:30:00,38.7,29.3,-100.00,North,2,0.0,6.0,69,0.00,,,0.00,meteohub,2013-02-26 21:30:00,
2013-02-26 16:35:00,39.7,30.7,-100.00,NW,326,0.0,6.0,70,0.00,,,0.00,meteohub,2013-02-26 21:35:00,
2013-02-26 16:41:00,38.1,29.1,-100.00,NW,326,0.0,6.0,70,0.00,,,0.00,meteohub,2013-02-26 21:41:00,
2013-02-26 16:46:00,38.7,29.7,-100.00,NW,326,0.0,5.0,70,0.00,,,0.00,meteohub,2013-02-26 21:46:00,
2013-02-26 16:51:00,38.1,29.1,-100.00,NNE,15,0.0,2.0,70,0.00,,,0.00,meteohub,2013-02-26 21:51:00,
2013-02-26 16:56:00,37.8,28.9,-100.00,NNE,15,0.0,3.0,70,0.00,,,0.00,meteohub,2013-02-26 21:56:00,
2013-02-26 17:01:00,38.7,32.4,-100.00,South,178,4.0,4.0,78,0.00,,,0.00,meteohub,2013-02-26 22:01:00,
2013-02-26 17:06:00,39.0,34.5,-100.00,ESE,106,0.0,5.0,84,0.00,,,0.00,meteohub,2013-02-26 22:06:00,
2013-02-26 17:11:00,39.0,35.2,-100.00,ESE,123,0.0,5.0,86,0.00,,,0.00,meteohub,2013-02-26 22:11:00,
2013-02-26 17:16:00,40.5,37.8,-100.00,ESE,111,1.0,5.0,90,0.00,,,0.00,meteohub,2013-02-26 22:16:00,
2013-02-26 17:21:00,38.8,35.6,-100.00,SE,125,3.0,5.0,88,0.00,,,0.00,meteohub,2013-02-26 22:21:00,
2013-02-26 17:26:00,38.7,34.2,-100.00,SE,133,0.0,5.0,84,0.00,,,0.00,meteohub,2013-02-26 22:26:00,
2013-02-26 17:31:00,38.8,35.6,-100.00,SSE,158,3.0,5.0,88,0.00,,,0.00,meteohub,2013-02-26 22:31:00,
2013-02-26 17:36:00,39.4,36.7,-100.00,South,189,0.0,7.0,90,0.00,,,0.00,meteohub,2013-02-26 22:36:00,
2013-02-26 17:41:00,39.7,37.4,-100.00,ESE,113,1.0,7.0,91,0.00,,,0.00,meteohub,2013-02-26 22:41:00,
2013-02-26 17:46:00,38.7,34.9,-100.00,SE,142,0.0,4.0,86,0.00,,,0.00,meteohub,2013-02-26 22:46:00,
2013-02-26 17:52:00,37.8,31.5,-100.00,SE,137,1.0,4.0,78,0.00,,,0.00,meteohub,2013-02-26 22:52:00,
2013-02-26 17:57:00,37.6,31.1,-100.00,ESE,106,0.0,6.0,77,0.00,,,0.00,meteohub,2013-02-26 22:57:00,
2013-02-26 18:02:00,37.0,32.0,-100.00,SSE,167,1.0,6.0,82,0.00,,,0.00,meteohub,2013-02-26 23:02:00,
2013-02-26 18:07:00,37.4,34.2,-100.00,SE,144,0.0,7.0,88,0.00,,,0.00,meteohub,2013-02-26 23:07:00,
2013-02-26 18:12:00,37.8,34.0,-100.00,SE,143,3.0,7.0,86,0.00,,,0.00,meteohub,2013-02-26 23:12:00,
2013-02-26 18:17:00,36.9,31.6,-100.00,East,94,0.0,7.0,81,0.00,,,0.00,meteohub,2013-02-26 23:17:00,
2013-02-26 18:22:00,36.9,30.6,-100.00,SE,136,2.0,7.0,78,0.00,,,0.00,meteohub,2013-02-26 23:22:00,
2013-02-26 18:27:00,36.7,29.5,-100.00,SE,139,3.0,6.0,75,0.00,,,0.00,meteohub,2013-02-26 23:27:00,
2013-02-26 18:32:00,36.3,28.2,-100.00,SE,136,3.0,6.0,72,0.00,,,0.00,meteohub,2013-02-26 23:32:00,
2013-02-26 18:37:00,36.3,28.6,-100.00,SSE,164,2.0,6.0,73,0.00,,,0.00,meteohub,2013-02-26 23:37:00,
2013-02-26 18:42:00,37.0,29.1,-100.00,ESE,104,0.0,6.0,73,0.00,,,0.00,meteohub,2013-02-26 23:42:00,
2013-02-26 18:47:00,36.9,28.9,-100.00,SSE,150,0.0,6.0,73,0.00,,,0.00,meteohub,2013-02-26 23:47:00,
2013-02-26 18:52:00,35.4,28.0,-100.00,SSE,163,2.0,6.0,74,0.00,,,0.00,meteohub,2013-02-26 23:52:00,
2013-02-26 18:57:00,36.0,28.2,-100.00,South,178,2.0,4.0,73,0.00,,,0.00,meteohub,2013-02-26 23:57:00,
2013-02-26 19:02:00,35.4,27.7,-100.00,SSE,161,1.0,5.0,73,0.00,,,0.00,meteohub,2013-02-27 00:02:00,
2013-02-26 19:07:00,35.1,27.3,-100.00,East,82,1.0,5.0,73,0.00,,,0.00,meteohub,2013-02-27 00:07:00,
2013-02-26 19:12:00,35.1,27.0,-100.00,SE,135,1.0,5.0,72,0.00,,,0.00,meteohub,2013-02-27 00:12:00,
2013-02-26 19:17:00,34.5,26.8,-100.00,SE,129,3.0,6.0,73,0.00,,,0.00,meteohub,2013-02-27 00:17:00,
2013-02-26 19:22:00,35.4,27.7,-100.00,NE,42,0.0,6.0,73,0.00,,,0.00,meteohub,2013-02-27 00:22:00,
2013-02-26 19:27:00,35.2,27.5,-100.00,ESE,115,1.0,5.0,73,0.00,,,0.00,meteohub,2013-02-27 00:27:00,
2013-02-26 19:32:00,35.4,27.7,-100.00,ESE,120,0.0,5.0,73,0.00,,,0.00,meteohub,2013-02-27 00:32:00,
2013-02-26 19:37:00,35.4,27.7,-100.00,SW,222,1.0,6.0,73,0.00,,,0.00,meteohub,2013-02-27 00:37:00,
2013-02-26 19:42:00,34.5,27.1,-100.00,SE,136,0.0,6.0,74,0.00,,,0.00,meteohub,2013-02-27 00:42:00,
2013-02-26 19:47:00,34.3,27.0,-100.00,SE,135,0.0,5.0,74,0.00,,,0.00,meteohub,2013-02-27 00:47:00,
2013-02-26 19:52:00,35.8,28.6,-100.00,SE,135,0.0,5.0,75,0.00,,,0.00,meteohub,2013-02-27 00:52:00,
2013-02-26 19:57:00,35.2,28.0,-100.00,SE,125,0.0,5.0,75,0.00,,,0.00,meteohub,2013-02-27 00:57:00,
2013-02-26 20:02:00,35.2,28.4,-100.00,SE,125,0.0,3.0,76,0.00,,,0.00,meteohub,2013-02-27 01:02:00,
2013-02-26 20:07:00,35.2,28.4,-100.00,SE,132,0.0,3.0,76,0.00,,,0.00,meteohub,2013-02-27 01:07:00,
2013-02-26 20:12:00,34.7,27.9,-100.00,SE,133,0.0,3.0,76,0.00,,,0.00,meteohub,2013-02-27 01:12:00,
2013-02-26 20:17:00,35.1,28.2,-100.00,SE,133,0.0,5.0,76,0.00,,,0.00,meteohub,2013-02-27 01:17:00,
2013-02-26 20:22:00,34.5,28.0,-100.00,SE,133,0.0,5.0,77,0.00,,,0.00,meteohub,2013-02-27 01:22:00,
2013-02-26 20:27:00,35.1,28.6,-100.00,SE,133,0.0,0.0,77,0.00,,,0.00,meteohub,2013-02-27 01:27:00,
2013-02-26 20:32:00,34.7,28.6,-100.00,SE,133,0.0,0.0,78,0.00,,,0.00,meteohub,2013-02-27 01:32:00,
2013-02-26 20:37:00,35.2,29.1,-100.00,SE,133,0.0,0.0,78,0.00,,,0.00,meteohub,2013-02-27 01:37:00,
2013-02-26 20:42:00,34.7,28.9,-100.00,SE,133,0.0,0.0,79,0.00,,,0.00,meteohub,2013-02-27 01:42:00,
2013-02-26 20:47:00,34.5,28.8,-100.00,ENE,61,0.0,1.0,79,0.00,,,0.00,meteohub,2013-02-27 01:47:00,
2013-02-26 20:52:00,34.7,28.9,-100.00,ESE,112,0.0,1.0,79,0.00,,,0.00,meteohub,2013-02-27 01:52:00,
2013-02-26 20:57:00,34.5,28.8,-100.00,East,98,0.0,3.0,79,0.00,,,0.00,meteohub,2013-02-27 01:57:00,
2013-02-26 21:02:00,34.5,28.9,-100.00,ESE,120,0.0,3.0,80,0.00,,,0.00,meteohub,2013-02-27 02:02:00,
2013-02-26 21:07:00,34.3,28.8,-100.00,SSE,168,0.0,3.0,80,0.00,,,0.00,meteohub,2013-02-27 02:07:00,
2013-02-26 21:13:00,34.3,29.1,-100.00,East,95,0.0,3.0,81,0.00,,,0.00,meteohub,2013-02-27 02:13:00,
2013-02-26 21:18:00,33.8,28.6,-100.00,SSE,154,3.0,4.0,81,0.00,,,0.00,meteohub,2013-02-27 02:18:00,
2013-02-26 21:24:00,34.5,29.3,-100.00,SSE,165,1.0,4.0,81,0.00,,,0.00,meteohub,2013-02-27 02:24:00,
2013-02-26 21:29:00,34.0,28.8,-100.00,NNE,32,0.0,4.0,81,0.00,,,0.00,meteohub,2013-02-27 02:29:00,
2013-02-26 21:35:00,34.0,29.1,-100.00,ENE,60,0.0,5.0,82,0.00,,,0.00,meteohub,2013-02-27 02:35:00,
2013-02-26 21:40:00,33.6,28.8,-100.00,South,182,0.0,5.0,82,0.00,,,0.00,meteohub,2013-02-27 02:40:00,
2013-02-26 21:45:00,33.1,28.2,-100.00,SSE,157,0.0,5.0,82,0.00,,,0.00,meteohub,2013-02-27 02:45:00,
2013-02-26 21:50:00,33.3,28.4,-100.00,ENE,67,0.0,5.0,82,0.00,,,0.00,meteohub,2013-02-27 02:50:00,
2013-02-26 21:55:00,34.0,29.1,-100.00,ESE,118,0.0,4.0,82,0.00,,,0.00,meteohub,2013-02-27 02:55:00,
2013-02-26 22:00:00,33.1,28.4,-100.00,SSE,153,4.0,4.0,83,0.00,,,0.00,meteohub,2013-02-27 03:00:00,
2013-02-26 22:06:00,33.3,28.6,-100.00,East,98,0.0,6.0,83,0.00,,,0.00,meteohub,2013-02-27 03:06:00,
2013-02-26 22:11:00,33.1,28.4,-100.00,East,82,0.0,6.0,83,0.00,,,0.00,meteohub,2013-02-27 03:11:00,
2013-02-26 22:16:00,33.1,28.4,-100.00,ESE,111,0.0,6.0,83,0.00,,,0.00,meteohub,2013-02-27 03:16:00,
2013-02-26 22:21:00,33.3,28.9,-100.00,ESE,111,0.0,5.0,84,0.00,,,0.00,meteohub,2013-02-27 03:21:00,
2013-02-26 22:26:00,33.1,28.8,-100.00,ESE,120,0.0,5.0,84,0.00,,,0.00,meteohub,2013-02-27 03:26:00,
2013-02-26 22:31:00,32.7,28.4,-100.00,SE,129,1.0,5.0,84,0.00,,,0.00,meteohub,2013-02-27 03:31:00,
2013-02-26 22:36:00,33.3,29.3,-100.00,NE,47,1.0,5.0,85,0.00,,,0.00,meteohub,2013-02-27 03:36:00,
2013-02-26 22:41:00,33.1,29.1,-100.00,East,91,0.0,5.0,85,0.00,,,0.00,meteohub,2013-02-27 03:41:00,
2013-02-26 22:46:00,33.8,29.8,-100.00,East,91,0.0,5.0,85,0.00,,,0.00,meteohub,2013-02-27 03:46:00,
2013-02-26 22:51:00,33.8,29.8,-100.00,South,174,0.0,5.0,85,0.00,,,0.00,meteohub,2013-02-27 03:51:00,
2013-02-26 22:56:00,33.1,29.1,-100.00,SSE,160,3.0,4.0,85,0.00,,,0.00,meteohub,2013-02-27 03:56:00,
2013-02-26 23:01:00,33.3,29.3,-100.00,SE,125,0.0,5.0,85,0.00,,,0.00,meteohub,2013-02-27 04:01:00,
2013-02-26 23:07:00,32.7,28.9,-100.00,SSE,153,0.0,5.0,86,0.00,,,0.00,meteohub,2013-02-27 04:07:00,
2013-02-26 23:12:00,33.3,29.3,-100.00,ESE,123,0.0,5.0,85,0.00,,,0.00,meteohub,2013-02-27 04:12:00,
2013-02-26 23:17:00,33.1,29.3,-100.00,South,188,2.0,5.0,86,0.00,,,0.00,meteohub,2013-02-27 04:17:00,
2013-02-26 23:22:00,33.6,29.8,-100.00,East,94,0.0,5.0,86,0.00,,,0.00,meteohub,2013-02-27 04:22:00,
2013-02-26 23:27:00,33.6,29.8,-100.00,SE,126,1.0,5.0,86,0.00,,,0.00,meteohub,2013-02-27 04:27:00,
2013-02-26 23:32:00,33.6,29.8,-100.00,South,184,2.0,5.0,86,0.00,,,0.00,meteohub,2013-02-27 04:32:00,
2013-02-26 23:37:00,33.3,29.5,-100.00,SSE,153,3.0,6.0,86,0.00,,,0.00,meteohub,2013-02-27 04:37:00,
2013-02-26 23:42:00,33.1,29.3,-100.00,ENE,60,1.0,6.0,86,0.00,,,0.00,meteohub,2013-02-27 04:42:00,
2013-02-26 23:47:00,33.6,30.2,-100.00,SSE,158,2.0,3.0,87,0.00,,,0.00,meteohub,2013-02-27 04:47:00,
2013-02-26 23:52:00,33.6,30.2,-100.00,SE,146,4.0,4.0,87,0.00,,,0.00,meteohub,2013-02-27 04:52:00,
2013-02-26 23:57:00,33.3,29.8,-100.00,East,95,0.0,6.0,87,0.00,,,0.00,meteohub,2013-02-27 04:57:00,